createdAt,value
2023-03-10T00:00:00.518Z,2.55
2023-03-10T00:02:30.864Z,1.88
2023-03-10T00:04:58.614Z,1.95
2023-03-10T00:07:27.708Z,2.17
2023-03-10T00:09:55.347Z,2.13
2023-03-10T00:12:23.327Z,2.33
2023-03-10T00:14:50.946Z,2.13
2023-03-10T00:17:18.545Z,2.08
2023-03-10T00:19:46.193Z,2.05
2023-03-10T00:22:13.826Z,2.08
2023-03-10T00:24:43.053Z,1.80
2023-03-10T00:27:10.684Z,2.08
2023-03-10T00:29:39.279Z,1.85
2023-03-10T00:32:07.979Z,1.90
2023-03-10T00:34:35.668Z,2.17
2023-03-10T00:37:06.301Z,1.70
2023-03-10T00:39:33.935Z,2.08
2023-03-10T00:42:04.755Z,1.90
2023-03-10T00:44:35.232Z,2.08
2023-03-10T00:47:02.925Z,2.10
2023-03-10T00:49:30.538Z,2.00
2023-03-10T00:51:58.168Z,1.70
2023-03-10T00:54:25.820Z,1.90
2023-03-10T00:56:53.513Z,2.25
2023-03-10T00:59:22.510Z,2.30
2023-03-10T01:01:50.195Z,1.83
2023-03-10T01:04:19.965Z,1.92
2023-03-10T01:06:47.823Z,1.70
2023-03-10T01:09:16.067Z,2.00
2023-03-10T01:11:43.712Z,1.90
2023-03-10T01:14:13.949Z,1.95
2023-03-10T01:16:42.952Z,1.83
2023-03-10T01:19:10.701Z,2.20
2023-03-10T01:21:40.166Z,1.95
2023-03-10T01:24:08.975Z,2.08
2023-03-10T01:26:36.720Z,1.70
2023-03-10T01:29:04.441Z,1.70
2023-03-10T01:31:32.101Z,1.80
2023-03-10T01:34:01.152Z,1.60
2023-03-10T01:36:29.371Z,1.85
2023-03-10T01:38:58.209Z,1.70
2023-03-10T01:41:26.517Z,2.10
2023-03-10T01:43:57.809Z,1.70
2023-03-10T01:46:45.919Z,2.00
2023-03-10T01:49:23.702Z,1.73
2023-03-10T01:51:56.445Z,2.00
2023-03-10T01:54:27.220Z,2.08
2023-03-10T01:56:56.652Z,1.80
2023-03-10T01:59:27.025Z,1.90
2023-03-10T02:01:56.274Z,2.03
2023-03-10T02:04:33.059Z,1.75
2023-03-10T02:07:02.313Z,1.80
2023-03-10T02:09:30.614Z,1.65
2023-03-10T02:11:59.609Z,1.98
2023-03-10T02:14:27.632Z,1.73
2023-03-10T02:16:58.582Z,2.10
2023-03-10T02:19:43.184Z,1.60
2023-03-10T02:22:15.616Z,1.83
2023-03-10T02:24:51.041Z,1.75
2023-03-10T02:27:24.675Z,1.95
2023-03-10T02:30:00.234Z,1.98
2023-03-10T02:34:56.780Z,1.63
2023-03-10T02:37:26.198Z,2.08
2023-03-10T02:39:54.944Z,2.17
2023-03-10T02:42:26.269Z,1.92
2023-03-10T02:44:55.019Z,2.00
2023-03-10T02:47:22.688Z,1.70
2023-03-10T02:49:50.502Z,1.85
2023-03-10T02:52:26.615Z,1.52
2023-03-10T02:54:56.956Z,1.73
2023-03-10T02:57:26.010Z,1.60
2023-03-10T02:59:53.696Z,1.50
2023-03-10T03:02:21.351Z,1.70
2023-03-10T03:04:50.737Z,1.60
2023-03-10T03:07:18.390Z,1.73
2023-03-10T03:09:49.241Z,1.33
2023-03-10T03:12:18.931Z,1.73
2023-03-10T03:14:48.824Z,1.95
2023-03-10T03:17:16.542Z,1.88
2023-03-10T03:19:44.235Z,1.80
2023-03-10T03:22:11.884Z,1.58
2023-03-10T03:24:39.536Z,1.80
2023-03-10T03:27:07.199Z,1.85
2023-03-10T03:29:35.388Z,1.45
2023-03-10T03:32:04.682Z,1.73
2023-03-10T03:34:35.255Z,2.17
2023-03-10T03:37:02.887Z,1.70
2023-03-10T03:39:30.632Z,1.52
2023-03-10T03:41:59.729Z,1.83
2023-03-10T03:44:27.383Z,1.60
2023-03-10T03:46:55.016Z,1.58
2023-03-10T03:49:27.327Z,1.67
2023-03-10T03:52:00.242Z,1.63
2023-03-10T03:54:28.068Z,1.23
2023-03-10T03:56:58.664Z,1.48
2023-03-10T03:59:27.961Z,1.60
2023-03-10T04:01:55.642Z,1.60
2023-03-10T04:04:25.710Z,1.65
2023-03-10T04:06:54.746Z,1.58
2023-03-10T04:09:22.519Z,1.38
2023-03-10T04:11:50.225Z,1.42
2023-03-10T04:14:17.874Z,1.60
2023-03-10T04:16:49.236Z,1.63
2023-03-10T04:19:16.960Z,1.30
2023-03-10T04:21:44.750Z,1.98
2023-03-10T04:24:13.799Z,1.45
2023-03-10T04:26:41.556Z,1.40
2023-03-10T04:29:10.579Z,1.90
2023-03-10T04:31:38.291Z,1.50
2023-03-10T04:34:07.605Z,1.40
2023-03-10T04:36:35.293Z,1.30
2023-03-10T04:39:04.981Z,1.30
2023-03-10T04:41:34.023Z,1.58
2023-03-10T04:44:01.657Z,1.80
2023-03-10T04:46:31.709Z,1.20
2023-03-10T04:48:59.428Z,1.55
2023-03-10T04:51:27.080Z,1.55
2023-03-10T04:53:54.763Z,1.50
2023-03-10T04:56:22.413Z,1.58
2023-03-10T04:58:51.600Z,1.42
2023-03-10T05:01:19.917Z,1.48
2023-03-10T05:03:47.605Z,1.70
2023-03-10T05:06:17.668Z,1.90
2023-03-10T05:08:45.408Z,1.98
2023-03-10T05:11:13.783Z,2.05
2023-03-10T05:13:41.666Z,1.73
2023-03-10T05:16:15.501Z,1.40
2023-03-10T05:18:43.427Z,1.90
2023-03-10T05:21:11.460Z,1.50
2023-03-10T05:23:39.188Z,1.67
2023-03-10T05:26:08.115Z,1.63
2023-03-10T05:28:35.967Z,1.60
2023-03-10T05:31:09.787Z,1.70
2023-03-10T05:33:38.896Z,1.40
2023-03-10T05:36:11.220Z,1.50
2023-03-10T05:38:39.364Z,1.75
2023-03-10T05:41:08.333Z,1.67
2023-03-10T05:43:36.377Z,2.63
2023-03-10T05:46:04.145Z,1.83
2023-03-10T05:48:32.261Z,1.77
2023-03-10T05:51:03.741Z,2.03
2023-03-10T05:53:33.159Z,2.22
2023-03-10T05:56:00.905Z,2.00
2023-03-10T05:58:28.651Z,1.63
2023-03-10T06:00:56.332Z,2.10
2023-03-10T06:03:24.907Z,1.70
2023-03-10T06:05:52.707Z,1.88
2023-03-10T06:08:21.789Z,1.77
2023-03-10T06:10:49.516Z,2.00
2023-03-10T06:13:20.173Z,1.88
2023-03-10T06:15:50.844Z,1.67
2023-03-10T06:18:18.688Z,1.63
2023-03-10T06:20:47.858Z,2.15
2023-03-10T06:23:15.958Z,1.80
2023-03-10T06:25:45.072Z,2.05
2023-03-10T06:28:13.687Z,1.65
2023-03-10T06:30:41.459Z,1.55
2023-03-10T06:33:09.365Z,1.88
2023-03-10T06:35:37.031Z,1.52
2023-03-10T06:38:04.681Z,1.52
2023-03-10T06:40:32.320Z,2.00
2023-03-10T06:43:01.314Z,1.75
2023-03-10T06:45:29.033Z,1.90
2023-03-10T06:47:56.984Z,1.50
2023-03-10T06:50:24.768Z,1.70
2023-03-10T06:52:52.450Z,4.60
2023-03-10T06:55:20.242Z,3.17
2023-03-10T06:57:47.957Z,1.80
2023-03-10T07:00:19.394Z,2.00
2023-03-10T07:02:49.048Z,1.45
2023-03-10T07:05:16.681Z,1.88
2023-03-10T07:07:44.435Z,2.20
2023-03-10T07:10:13.427Z,1.88
2023-03-10T07:12:41.377Z,2.08
2023-03-10T07:15:10.042Z,2.08
2023-03-10T07:17:39.096Z,1.40
2023-03-10T07:20:08.258Z,1.80
2023-03-10T07:22:35.943Z,1.80
2023-03-10T07:25:05.003Z,1.90
2023-03-10T07:27:32.933Z,1.85
2023-03-10T07:30:00.663Z,1.73
2023-03-10T07:32:28.359Z,1.95
2023-03-10T07:34:57.452Z,1.60
2023-03-10T07:37:25.165Z,1.58
2023-03-10T07:39:54.916Z,2.05
2023-03-10T07:42:22.924Z,1.77
2023-03-10T07:44:51.050Z,1.77
2023-03-10T07:47:18.833Z,1.75
2023-03-10T07:49:47.031Z,2.10
2023-03-10T07:52:18.166Z,1.70
2023-03-10T07:54:46.367Z,1.52
2023-03-10T07:57:14.832Z,1.83
2023-03-10T07:59:43.685Z,1.52
2023-03-10T08:02:13.428Z,1.67
2023-03-10T08:04:41.403Z,1.98
2023-03-10T08:07:10.211Z,1.77
2023-03-10T08:09:39.429Z,1.90
2023-03-10T08:12:08.337Z,1.52
2023-03-10T08:14:36.577Z,1.40
2023-03-10T08:17:04.351Z,2.72
2023-03-10T08:19:32.208Z,1.95
2023-03-10T08:22:02.071Z,1.58
2023-03-10T08:24:30.078Z,1.40
2023-03-10T08:26:59.186Z,1.70
2023-03-10T08:29:26.860Z,1.60
2023-03-10T08:31:54.811Z,1.90
2023-03-10T08:34:23.321Z,1.65
2023-03-10T08:36:50.984Z,1.42
2023-03-10T08:39:18.704Z,1.80
2023-03-10T08:41:49.753Z,1.48
2023-03-10T08:44:20.062Z,1.48
2023-03-10T08:46:50.185Z,1.50
2023-03-10T08:49:19.618Z,1.20
2023-03-10T08:51:47.616Z,1.58
2023-03-10T08:54:16.988Z,1.60
2023-03-10T08:56:44.970Z,1.40
2023-03-10T08:59:12.856Z,2.55
2023-03-10T09:01:42.701Z,2.60
2023-03-10T09:04:10.925Z,2.00
2023-03-10T09:06:39.320Z,1.55
2023-03-10T09:09:10.036Z,1.50
2023-03-10T09:11:39.299Z,1.67
2023-03-10T09:14:08.868Z,1.75
2023-03-10T09:16:37.755Z,1.67
2023-03-10T09:19:06.983Z,1.50
2023-03-10T09:21:34.983Z,1.52
2023-03-10T09:24:03.510Z,1.35
2023-03-10T09:26:35.313Z,1.70
2023-03-10T09:29:04.468Z,1.75
2023-03-10T09:31:35.558Z,1.45
2023-03-10T09:34:04.161Z,1.55
2023-03-10T09:36:33.680Z,1.65
2023-03-10T09:39:02.360Z,2.10
2023-03-10T09:41:42.411Z,1.80
2023-03-10T09:44:25.963Z,1.40
2023-03-10T09:47:12.460Z,1.45
2023-03-10T09:49:44.140Z,1.60
2023-03-10T09:52:23.833Z,1.88
2023-03-10T09:55:00.254Z,1.77
2023-03-10T09:57:29.140Z,1.40
2023-03-10T10:00:00.177Z,2.13
2023-03-10T10:02:33.544Z,1.85
2023-03-10T10:05:04.557Z,1.85
2023-03-10T10:07:42.924Z,1.98
2023-03-10T10:10:19.985Z,2.10
2023-03-10T10:12:52.353Z,1.70
2023-03-10T10:15:22.413Z,1.63
2023-03-10T10:18:15.805Z,1.63
2023-03-10T10:20:50.908Z,1.65
2023-03-10T10:23:25.434Z,0.90
2023-03-10T10:25:53.423Z,1.38
2023-03-10T10:28:26.509Z,0.95
2023-03-10T10:31:11.217Z,0.98
2023-03-10T10:33:57.252Z,0.73
2023-03-10T10:38:56.864Z,0.50
2023-03-10T10:41:27.885Z,0.55
2023-03-10T10:43:58.860Z,0.70
2023-03-10T10:46:30.092Z,0.60
2023-03-10T10:49:07.653Z,0.85
2023-03-10T10:51:39.283Z,0.50
2023-03-10T10:54:28.240Z,0.60
2023-03-10T10:56:58.045Z,0.70
2023-03-10T10:59:30.653Z,0.50
2023-03-10T11:02:00.225Z,1.25
2023-03-10T11:04:31.223Z,1.42
2023-03-10T11:07:13.878Z,0.50
2023-03-10T11:09:43.645Z,0.60
2023-03-10T11:12:20.432Z,0.50
2023-03-10T11:15:02.614Z,0.60
2023-03-10T11:17:35.907Z,0.68
2023-03-10T11:20:13.026Z,0.63
2023-03-10T11:22:45.957Z,0.70
2023-03-10T11:25:26.626Z,0.73
2023-03-10T11:28:10.507Z,0.80
2023-03-10T11:30:39.759Z,0.52
2023-03-10T11:33:21.122Z,0.77
2023-03-10T11:35:51.754Z,0.80
2023-03-10T11:38:28.809Z,0.75
2023-03-10T11:41:00.348Z,0.70
2023-03-10T11:43:38.039Z,0.50
2023-03-10T11:46:14.790Z,0.57
2023-03-10T11:48:56.782Z,0.73
2023-03-10T11:51:30.769Z,1.05
2023-03-10T11:54:04.201Z,0.60
2023-03-10T11:56:33.248Z,0.65
2023-03-10T11:59:08.290Z,0.73
2023-03-10T12:01:41.966Z,1.02
2023-03-10T12:04:16.179Z,0.60
2023-03-10T12:06:50.154Z,0.40
2023-03-10T12:09:28.530Z,0.80
2023-03-10T12:11:58.131Z,0.80
2023-03-10T12:14:26.262Z,0.75
2023-03-10T12:16:55.342Z,0.63
2023-03-10T12:19:23.005Z,0.80
2023-03-10T12:22:25.186Z,0.68
2023-03-10T12:24:54.048Z,0.75
2023-03-10T12:27:23.093Z,0.88
2023-03-10T12:29:50.758Z,0.70
2023-03-10T12:32:47.274Z,0.60
2023-03-10T12:35:37.282Z,0.60
2023-03-10T12:38:28.824Z,0.50
2023-03-10T12:40:57.263Z,0.47
2023-03-10T12:44:04.568Z,0.70
2023-03-10T12:46:49.652Z,0.50
2023-03-10T12:49:28.094Z,0.80
2023-03-10T12:52:08.256Z,0.60
2023-03-10T12:54:48.357Z,1.00
2023-03-10T12:57:20.180Z,0.55
2023-03-10T12:59:55.964Z,0.60
2023-03-10T13:02:37.734Z,0.40
2023-03-10T13:05:08.676Z,0.47
2023-03-10T13:07:38.085Z,0.30
2023-03-10T13:10:07.931Z,0.43
2023-03-10T13:12:48.066Z,0.60
2023-03-10T13:15:24.782Z,0.50
2023-03-10T13:17:55.511Z,0.40
2023-03-10T13:20:24.441Z,0.40
2023-03-10T13:22:56.676Z,0.40
2023-03-10T13:25:25.045Z,0.60
2023-03-10T13:27:54.590Z,0.50
2023-03-10T13:30:23.753Z,0.45
2023-03-10T13:32:57.660Z,0.40
2023-03-10T13:35:31.435Z,0.32
2023-03-10T13:38:12.208Z,0.50
2023-03-10T13:40:42.989Z,0.50
2023-03-10T13:43:35.234Z,0.40
2023-03-10T13:46:05.416Z,0.30
2023-03-10T13:48:35.356Z,0.40
2023-03-10T13:51:09.505Z,0.32
2023-03-10T13:53:37.249Z,0.57
2023-03-10T13:56:18.358Z,0.40
2023-03-10T13:58:47.410Z,0.52
2023-03-10T14:01:25.094Z,0.40
2023-03-10T14:03:59.121Z,0.55
2023-03-10T14:06:29.110Z,0.30
2023-03-10T14:08:57.123Z,0.40
2023-03-10T14:11:32.365Z,0.52
2023-03-10T14:14:00.829Z,0.50
2023-03-10T14:16:49.037Z,0.40
2023-03-10T14:19:40.006Z,0.30
2023-03-10T14:22:26.495Z,0.40
2023-03-10T14:24:54.176Z,0.57
2023-03-10T14:27:22.503Z,0.60
2023-03-10T14:29:52.417Z,0.50
2023-03-10T14:32:21.039Z,0.60
2023-03-10T14:34:50.443Z,0.50
2023-03-10T14:37:18.142Z,0.60
2023-03-10T14:39:45.938Z,0.40
2023-03-10T14:42:21.384Z,0.60
2023-03-10T14:44:50.206Z,0.43
2023-03-10T14:47:18.958Z,0.50
2023-03-10T14:49:47.205Z,0.70
2023-03-10T14:52:18.771Z,0.52
2023-03-10T14:54:47.274Z,0.50
2023-03-10T14:57:19.054Z,0.55
2023-03-10T14:59:47.084Z,0.60
2023-03-10T15:02:20.568Z,0.55
2023-03-10T15:04:48.319Z,0.50
2023-03-10T15:07:17.670Z,0.40
2023-03-10T15:09:45.533Z,0.50
2023-03-10T15:12:15.082Z,0.43
2023-03-10T15:14:45.776Z,0.40
2023-03-10T15:17:13.729Z,0.50
2023-03-10T15:19:41.359Z,0.40
2023-03-10T15:22:09.041Z,0.40
2023-03-10T15:24:38.124Z,0.50
2023-03-10T15:27:05.841Z,0.50
2023-03-10T15:29:33.552Z,0.85
2023-03-10T15:32:01.623Z,0.68
2023-03-10T15:34:29.316Z,0.38
2023-03-10T15:36:56.990Z,0.38
2023-03-10T15:39:31.490Z,0.50
2023-03-10T15:42:01.779Z,0.60
2023-03-10T15:44:29.829Z,0.60
2023-03-10T15:46:57.584Z,0.70
2023-03-10T15:49:25.474Z,0.50
2023-03-10T15:51:53.172Z,0.50
2023-03-10T15:54:20.853Z,1.73
2023-03-10T15:56:48.571Z,0.60
2023-03-10T15:59:18.070Z,0.63
2023-03-10T16:01:45.817Z,0.50
2023-03-10T16:04:13.651Z,0.60
2023-03-10T16:06:41.298Z,0.80
2023-03-10T16:09:09.211Z,0.75
2023-03-10T16:11:37.056Z,0.73
2023-03-10T16:14:05.230Z,0.70
2023-03-10T16:16:34.425Z,0.60
2023-03-10T16:19:02.635Z,1.08
2023-03-10T16:21:30.279Z,0.70
2023-03-10T16:23:58.264Z,0.55
2023-03-10T16:26:25.946Z,0.60
2023-03-10T16:28:55.107Z,0.80
2023-03-10T16:31:24.698Z,0.73
2023-03-10T16:33:54.707Z,0.50
2023-03-10T16:36:24.250Z,0.60
2023-03-10T16:38:53.564Z,0.43
2023-03-10T16:41:22.334Z,0.52
2023-03-10T16:43:51.348Z,0.73
2023-03-10T16:46:24.931Z,0.75
2023-03-10T16:48:55.874Z,0.70
2023-03-10T16:51:28.918Z,0.70
2023-03-10T16:53:58.101Z,0.60
2023-03-10T16:56:26.311Z,0.55
2023-03-10T16:58:54.435Z,0.50
2023-03-10T17:01:24.139Z,0.55
2023-03-10T17:03:52.528Z,0.60
2023-03-10T17:06:24.369Z,0.80
2023-03-10T17:08:53.825Z,0.60
2023-03-10T17:11:24.248Z,0.57
2023-03-10T17:13:54.094Z,0.55
2023-03-10T17:16:24.349Z,1.00
2023-03-10T17:18:52.507Z,0.88
2023-03-10T17:21:23.692Z,0.68
2023-03-10T17:23:51.494Z,1.25
2023-03-10T17:26:19.897Z,1.00
2023-03-10T17:28:49.046Z,1.30
2023-03-10T17:31:20.510Z,1.50
2023-03-10T17:33:48.430Z,1.20
2023-03-10T17:36:17.955Z,1.20
2023-03-10T17:38:47.226Z,2.20
2023-03-10T17:41:17.057Z,1.15
2023-03-10T17:43:44.803Z,1.30
2023-03-10T17:46:15.693Z,1.30
2023-03-10T17:48:44.027Z,1.52
2023-03-10T17:51:15.801Z,1.65
2023-03-10T17:53:43.865Z,1.48
2023-03-10T17:56:14.567Z,1.40
2023-03-10T17:58:43.263Z,1.50
2023-03-10T18:01:12.373Z,1.60
2023-03-10T18:03:40.066Z,1.38
2023-03-10T18:06:13.361Z,1.30
2023-03-10T18:08:41.246Z,1.52
2023-03-10T18:11:09.789Z,2.13
2023-03-10T18:13:39.651Z,1.80
2023-03-10T18:16:08.711Z,1.70
2023-03-10T18:18:36.341Z,1.80
2023-03-10T18:21:04.100Z,1.70
2023-03-10T18:23:31.766Z,1.80
2023-03-10T18:26:02.483Z,1.92
2023-03-10T18:28:30.105Z,3.10
2023-03-10T18:30:59.134Z,2.42
2023-03-10T18:33:26.832Z,1.77
2023-03-10T18:35:54.508Z,1.60
2023-03-10T18:38:22.171Z,1.88
2023-03-10T18:40:57.900Z,1.70
2023-03-10T18:43:26.409Z,2.00
2023-03-10T18:45:54.106Z,2.10
2023-03-10T18:48:25.554Z,1.80
2023-03-10T18:50:53.280Z,2.10
2023-03-10T18:53:21.041Z,2.50
2023-03-10T18:55:48.912Z,2.17
2023-03-10T18:58:16.688Z,1.65
2023-03-10T19:00:44.310Z,1.92
2023-03-10T19:03:13.509Z,2.03
2023-03-10T19:05:42.669Z,2.10
2023-03-10T19:08:11.084Z,2.38
2023-03-10T19:10:40.185Z,2.00
2023-03-10T19:13:08.397Z,2.10
2023-03-10T19:15:38.032Z,1.77
2023-03-10T19:18:06.041Z,1.70
2023-03-10T19:20:33.671Z,1.83
2023-03-10T19:23:02.687Z,1.80
2023-03-10T19:25:30.361Z,2.13
2023-03-10T19:27:58.047Z,2.83
2023-03-10T19:30:26.255Z,1.85
2023-03-10T19:32:54.126Z,1.80
2023-03-10T19:35:21.802Z,2.60
2023-03-10T19:37:52.091Z,2.10
2023-03-10T19:40:23.110Z,2.60
2023-03-10T19:42:51.042Z,2.25
2023-03-10T19:45:20.005Z,2.05
2023-03-10T19:47:48.424Z,2.47
2023-03-10T19:50:18.422Z,2.03
2023-03-10T19:52:46.989Z,2.03
2023-03-10T19:55:17.782Z,2.25
2023-03-10T19:57:47.109Z,1.80
2023-03-10T20:00:17.301Z,1.83
2023-03-10T20:02:45.577Z,2.05
2023-03-10T20:05:15.009Z,2.65
2023-03-10T20:07:44.143Z,1.70
2023-03-10T20:10:13.012Z,2.55
2023-03-10T20:12:40.787Z,2.25
2023-03-10T20:15:11.429Z,2.30
2023-03-10T20:17:39.587Z,2.22
2023-03-10T20:20:10.599Z,2.38
2023-03-10T20:22:39.877Z,2.28
2023-03-10T20:25:09.122Z,2.65
2023-03-10T20:27:37.432Z,2.38
2023-03-10T20:30:07.428Z,2.08
2023-03-10T20:32:36.775Z,1.98
2023-03-10T20:35:05.022Z,3.45
2023-03-10T20:37:33.733Z,2.17
2023-03-10T20:40:01.405Z,2.25
2023-03-10T20:42:29.300Z,1.92
2023-03-10T20:44:56.963Z,1.95
2023-03-10T20:47:24.844Z,2.38
2023-03-10T20:49:53.876Z,2.05
2023-03-10T20:52:21.683Z,2.33
2023-03-10T20:54:49.441Z,2.10
2023-03-10T20:57:17.136Z,2.00
2023-03-10T20:59:44.777Z,1.70
2023-03-10T21:02:15.761Z,2.15
2023-03-10T21:04:43.745Z,2.33
2023-03-10T21:07:12.790Z,2.00
2023-03-10T21:09:40.604Z,1.95
2023-03-10T21:12:08.384Z,1.80
2023-03-10T21:14:36.030Z,1.98
2023-03-10T21:17:04.999Z,1.50
2023-03-10T21:19:32.773Z,1.77
2023-03-10T21:22:03.170Z,1.85
2023-03-10T21:24:32.521Z,2.25
2023-03-10T21:27:00.995Z,2.05
2023-03-10T21:29:29.940Z,1.83
2023-03-10T21:31:57.688Z,1.88
2023-03-10T21:34:25.373Z,1.90
2023-03-10T21:36:53.070Z,1.83
2023-03-10T21:39:20.888Z,2.17
2023-03-10T21:41:50.039Z,2.60
2023-03-10T21:44:17.823Z,3.17
2023-03-10T21:46:46.146Z,2.70
2023-03-10T21:49:15.795Z,2.60
2023-03-10T21:51:43.644Z,2.95
2023-03-10T21:54:11.660Z,2.70
2023-03-10T21:56:39.396Z,3.13
2023-03-10T21:59:08.488Z,2.95
2023-03-10T22:01:36.257Z,2.80
2023-03-10T22:04:04.727Z,2.50
2023-03-10T22:06:32.413Z,2.60
2023-03-10T22:09:00.192Z,2.92
2023-03-10T22:11:27.844Z,2.38
2023-03-10T22:13:55.573Z,2.45
2023-03-10T22:16:24.904Z,2.13
2023-03-10T22:18:52.641Z,2.00
2023-03-10T22:21:20.384Z,2.08
2023-03-10T22:23:48.080Z,2.10
2023-03-10T22:26:15.746Z,2.10
2023-03-10T22:28:43.441Z,2.83
2023-03-10T22:31:12.078Z,2.08
2023-03-10T22:33:41.115Z,2.03
2023-03-10T22:36:12.342Z,1.77
2023-03-10T22:38:40.215Z,2.00
2023-03-10T22:41:10.431Z,2.10
2023-03-10T22:43:38.194Z,1.80
2023-03-10T22:46:10.908Z,1.85
2023-03-10T22:48:38.694Z,2.15
2023-03-10T22:51:09.244Z,2.05
2023-03-10T22:53:38.240Z,1.70
2023-03-10T23:02:48.326Z,1.88
2023-03-10T23:05:18.372Z,1.70
2023-03-10T23:07:46.390Z,1.83
2023-03-10T23:10:18.054Z,1.67
2023-03-10T23:12:45.809Z,1.63
2023-03-10T23:15:24.835Z,1.60
2023-03-10T23:17:55.655Z,2.20
2023-03-10T23:20:27.081Z,1.75
2023-03-10T23:22:56.068Z,1.50
2023-03-10T23:25:26.578Z,1.65
2023-03-10T23:27:54.450Z,1.90
2023-03-10T23:30:22.529Z,1.70
2023-03-10T23:32:51.451Z,1.83
2023-03-10T23:35:22.686Z,1.77
2023-03-10T23:37:53.831Z,1.67
2023-03-10T23:40:23.010Z,1.70
2023-03-10T23:42:51.228Z,1.50
2023-03-10T23:45:21.287Z,1.40
2023-03-10T23:47:49.516Z,1.58
2023-03-10T23:50:21.023Z,1.80
2023-03-10T23:52:49.737Z,1.52
2023-03-10T23:55:19.397Z,1.75
2023-03-10T23:57:47.328Z,1.92
